KMTJ/MTJ METAR and TAF weather

Enter ICAO airport designator
Station Type Date Time Source
KMTJ METAR 2021/10/24 20:53 UTC NOAA

KMTJ 242053Z AUTO 00000KT 10SM CLR 17/M01 A2997 RMK AO2 SLP106 T01671011 56022


Station Type Date Time Source
KMTJ Decoded METAR 2021/10/24 20:53 UTC NOAA

MONTROSE REGIONAL AIRPORT, CO, United States (KMTJ) 38-30N 107-54W 1750M
Oct 24, 2021 - 04:53 PM EDT / 2021.10.24 2053 UTC
Wind: Calm:0
Visibility: 10 mile(s):0
Sky conditions: clear
Temperature: 62.1 F (16.7 C)
Dew Point: 30.0 F (-1.1 C)
Relative Humidity: 29%
Pressure (altimeter): 29.97 in. Hg (1014 hPa)
Pressure tendency: 0.06 inches (2.2 hPa) lower than three hours ago
ob: KMTJ 242053Z AUTO 00000KT 10SM CLR 17/M01 A2997 RMK AO2 SLP106 T01671011 56022
cycle: 21

Station Type Date Time Source
KMTJ TAF 2021/10/24 18:34 UTC NOAA

TAF KMTJ 241732Z 2418/2518 36004KT P6SM FEW250
FM242100 32007KT P6SM FEW120 SCT250
FM250300 14006KT P6SM FEW120 SCT250
FM251200 16005KT P6SM SKC

Example: see airport list